Dades meteomassalio
Diari Summary for Gener 13, 2017 Units:  Metric    English   Both
« Previous Day
Next Day »
Diari Semanal Mensual Anual Personalitzat
  Maxima: Minima: Mijana:
Temperatura: -17.8 °C -15.5 °C -13.1 °C
Rosada: -17.8 °C -17.9 °C -16.2 °C
Humitat: Humidity % 52 % 68 %
Velocitat del vent: 0 km/h 17.9 km/h 63.4 km/h
Racha vent: 0 km/h - -
Vent:- - NW
Pressio: 0 hPa 34442.4 hPa -
Pluja: 0 mm    
Historical Graphs
 
 
Tabular Data for Gener 13, 2017
Time Temperature Dew Point Pressure Wind Wind Speed Wind Gust Humidity Rainfall Rate (Hourly) solar Conditions
-17.8 °C -17.8 °C 0 hPa Calm     Humidity % 0 mm SolarRadiationWatts/m^2 W/m2 Conditions
00:02 -10.8 °C -13.4 °C 34462.7 hPa WNW 38.8 km/h 38.8 km/h 73 % 0 mm 0.0 W/m2 CLR
00:07 -10.9 °C -13.5 °C 34462.7 hPa WNW 29.8 km/h 29.8 km/h 73 % 0 mm 0.0 W/m2 CLR
00:12 -10.8 °C -13.6 °C 34462.7 hPa WNW 23.8 km/h 23.8 km/h 72 % 0 mm 0.0 W/m2 CLR
00:17 -10.9 °C -13.6 °C 34462.7 hPa WNW 20.9 km/h 20.9 km/h 72 % 0 mm 0.0 W/m2 CLR
00:22 -10.9 °C -13.5 °C 34462.7 hPa WNW 17.9 km/h 17.9 km/h 73 % 0 mm 0.0 W/m2 CLR
00:27 -10.9 °C -13.6 °C 34462.7 hPa WNW 18.2 km/h 18.2 km/h 73 % 0 mm 0.0 W/m2 CLR
00:32 -10.9 °C -13.6 °C 34462.7 hPa West 23.8 km/h 23.8 km/h 73 % 0 mm 0.0 W/m2 CLR
00:37 -11 °C -13.6 °C 34462.7 hPa WNW 32.8 km/h 32.8 km/h 73 % 0 mm 0.0 W/m2 CLR
00:42 -11 °C -13.5 °C 34462.7 hPa West 23.8 km/h 23.8 km/h 74 % 0 mm 0.0 W/m2 CLR
00:47 -11.1 °C -13.6 °C 34462.7 hPa West 20.9 km/h 20.9 km/h 74 % 0 mm 0.0 W/m2 CLR
00:52 -11.1 °C -13.6 °C 34452.6 hPa WNW 23.8 km/h 23.8 km/h 74 % 0 mm 0.0 W/m2 CLR
00:57 -11.1 °C -13.6 °C 34452.6 hPa WNW 20.9 km/h 20.9 km/h 74 % 0 mm 0.0 W/m2 CLR
01:02 -11.1 °C -13.6 °C 34452.6 hPa West 20.9 km/h 20.9 km/h 74 % 0 mm 0.0 W/m2 CLR
01:07 -11.1 °C -13.6 °C 34452.6 hPa WNW 23.8 km/h 23.8 km/h 74 % 0 mm 0.0 W/m2 CLR
01:12 -11.2 °C -13.7 °C 34452.6 hPa WNW 26.9 km/h 26.9 km/h 74 % 0 mm 0.0 W/m2 CLR
01:17 -11.1 °C -13.6 °C 34452.6 hPa WNW 29.8 km/h 29.8 km/h 74 % 0 mm 0.0 W/m2 CLR
01:22 -11.1 °C -13.6 °C 34452.6 hPa WNW 32.8 km/h 32.8 km/h 74 % 0 mm 0.0 W/m2 CLR
01:27 -11.1 °C -13.6 °C 34452.6 hPa WNW 26.9 km/h 26.9 km/h 74 % 0 mm 0.0 W/m2 CLR
01:32 -11.2 °C -13.7 °C 34452.6 hPa WNW 23.8 km/h 23.8 km/h 74 % 0 mm 0.0 W/m2 CLR
01:37 -11.2 °C -13.6 °C 34452.6 hPa WNW 26.9 km/h 26.9 km/h 75 % 0 mm 0.0 W/m2 CLR
01:42 -11.2 °C -13.6 °C 34442.4 hPa WNW 28.5 km/h 28.5 km/h 75 % 0 mm 0.0 W/m2 CLR
01:47 -11.2 °C -13.6 °C 34442.4 hPa WNW 35.7 km/h 35.7 km/h 75 % 0 mm 0.0 W/m2 CLR
01:52 -11.2 °C -13.6 °C 34442.4 hPa WNW 26.9 km/h 26.9 km/h 75 % 0 mm 0.0 W/m2 CLR
01:57 -11.3 °C -13.7 °C 34442.4 hPa WNW 23.3 km/h 23.3 km/h 75 % 0 mm 0.0 W/m2 CLR
02:02 -11.3 °C -13.7 °C 34442.4 hPa WNW 20.8 km/h 20.8 km/h 75 % 0 mm 0.0 W/m2 CLR
02:07 -11.5 °C -13.7 °C 34442.4 hPa WNW 31.1 km/h 31.1 km/h 76 % 0 mm 0.0 W/m2 CLR
02:12 -11.4 °C -13.7 °C 34442.4 hPa NW 38.8 km/h 38.8 km/h 76 % 0 mm 0.0 W/m2 CLR
02:17 -11.4 °C -13.7 °C 34442.4 hPa NW 38.8 km/h 38.8 km/h 76 % 0 mm 0.0 W/m2 CLR
02:22 -11.4 °C -13.7 °C 34442.4 hPa NW 36.2 km/h 36.2 km/h 76 % 0 mm 0.0 W/m2 CLR
02:27 -11.5 °C -13.7 °C 34442.4 hPa NW 35.7 km/h 35.7 km/h 76 % 0 mm 0.0 W/m2 CLR
02:32 -11.5 °C -13.7 °C 34442.4 hPa NW 44.1 km/h 44.1 km/h 77 % 0 mm 0.0 W/m2 CLR
02:37 -11.5 °C -13.7 °C 34442.4 hPa NW 50.7 km/h 50.7 km/h 77 % 0 mm 0.0 W/m2 CLR
02:42 -11.4 °C -13.7 °C 34442.4 hPa NW 50.7 km/h 50.7 km/h 76 % 0 mm 0.0 W/m2 CLR
02:47 -11.4 °C -13.7 °C 34442.4 hPa NW 50.7 km/h 50.7 km/h 76 % 0 mm 0.0 W/m2 CLR
02:52 -11.4 °C -13.6 °C 34452.6 hPa NW 44.7 km/h 44.7 km/h 77 % 0 mm 0.0 W/m2 CLR
02:57 -11.4 °C -13.7 °C 34452.6 hPa NW 50.7 km/h 50.7 km/h 76 % 0 mm 0.0 W/m2 CLR
03:02 -11.4 °C -13.7 °C 34452.6 hPa NW 44.7 km/h 44.7 km/h 76 % 0 mm 0.0 W/m2 CLR
03:07 -11.4 °C -13.7 °C 34452.6 hPa NW 47.6 km/h 47.6 km/h 76 % 0 mm 0.0 W/m2 CLR
03:12 -11.4 °C -13.8 °C 34462.7 hPa NW 47.6 km/h 47.6 km/h 75 % 0 mm 0.0 W/m2 CLR
03:17 -11.4 °C -13.7 °C 34462.7 hPa NW 41.7 km/h 41.7 km/h 76 % 0 mm 0.0 W/m2 CLR
03:22 -11.5 °C -13.7 °C 34462.7 hPa NW 56.6 km/h 56.6 km/h 76 % 0 mm 0.0 W/m2 CLR
03:27 -11.5 °C -13.8 °C 34462.7 hPa NW 53.6 km/h 53.6 km/h 76 % 0 mm 0.0 W/m2 CLR
03:32 -11.6 °C -13.8 °C 34452.6 hPa NW 44.1 km/h 44.1 km/h 76 % 0 mm 0.0 W/m2 CLR
03:37 -11.6 °C -13.8 °C 34452.6 hPa NW 38.8 km/h 38.8 km/h 76 % 0 mm 0.0 W/m2 CLR
03:42 -11.6 °C -13.9 °C 34452.6 hPa NW 47.6 km/h 47.6 km/h 76 % 0 mm 0.0 W/m2 CLR
03:47 -11.7 °C -14.1 °C 34452.6 hPa NW 46.7 km/h 46.7 km/h 75 % 0 mm 0.0 W/m2 CLR
03:52 -11.7 °C -14.1 °C 34452.6 hPa NW 50.7 km/h 50.7 km/h 75 % 0 mm 0.0 W/m2 CLR
03:57 -11.8 °C -14.1 °C 34452.6 hPa NW 46.7 km/h 46.7 km/h 75 % 0 mm 0.0 W/m2 CLR
04:02 -11.8 °C -14.2 °C 34452.6 hPa NW 50.7 km/h 50.7 km/h 74 % 0 mm 0.0 W/m2 CLR
04:07 -11.8 °C -14.3 °C 34452.6 hPa NW 59.5 km/h 59.5 km/h 74 % 0 mm 0.0 W/m2 CLR
04:12 -11.8 °C -14.3 °C 34452.6 hPa NW 50.7 km/h 50.7 km/h 74 % 0 mm 0.0 W/m2 CLR
04:17 -11.9 °C -14.3 °C 34452.6 hPa NW 74.5 km/h 74.5 km/h 74 % 0 mm 0.0 W/m2 CLR
04:22 -11.9 °C -14.3 °C 34452.6 hPa NW 47.6 km/h 47.6 km/h 75 % 0 mm 0.0 W/m2 CLR
04:27 -11.9 °C -14.3 °C 34452.6 hPa NW 46.7 km/h 46.7 km/h 75 % 0 mm 0.0 W/m2 CLR
04:32 -11.9 °C -14.3 °C 34452.6 hPa NNW 68.6 km/h 68.6 km/h 75 % 0 mm 0.0 W/m2 CLR
04:37 -11.9 °C -14.3 °C 34452.6 hPa NNW 56.6 km/h 56.6 km/h 75 % 0 mm 0.0 W/m2 CLR
04:42 -12 °C -14.3 °C 34462.7 hPa NW 62.6 km/h 62.6 km/h 75 % 0 mm 0.0 W/m2 CLR
04:47 -12.1 °C -14.3 °C 34462.7 hPa NNW 50.7 km/h 50.7 km/h 76 % 0 mm 0.0 W/m2 CLR
04:48 -12.1 °C -14.3 °C 34462.7 hPa NNW 50.7 km/h 50.7 km/h 76 % 0 mm 0.0 W/m2 CLR
04:53 -12.1 °C -14.3 °C 34462.7 hPa NNW 57 km/h 57 km/h 76 % 0 mm 0.0 W/m2 CLR
04:58 -12.2 °C -14.4 °C 34462.7 hPa NW 62.6 km/h 62.6 km/h 76 % 0 mm 0.0 W/m2 CLR
05:03 -12.2 °C -14.6 °C 34462.7 hPa NW 77.4 km/h 77.4 km/h 75 % 0 mm 0.0 W/m2 CLR
05:08 -12.3 °C -14.5 °C 34462.7 hPa NW 74.5 km/h 74.5 km/h 77 % 0 mm 0.0 W/m2 CLR
05:13 -12.4 °C -14.6 °C 34462.7 hPa NW 53.6 km/h 53.6 km/h 76 % 0 mm 0.0 W/m2 CLR
05:18 -12.4 °C -14.7 °C 34462.7 hPa NW 47.6 km/h 47.6 km/h 76 % 0 mm 0.0 W/m2 CLR
05:23 -12.4 °C -14.6 °C 34452.6 hPa NW 56.6 km/h 56.6 km/h 77 % 0 mm 0.0 W/m2 CLR
05:28 -12.6 °C -14.8 °C 34452.6 hPa NW 59.5 km/h 59.5 km/h 76 % 0 mm 0.0 W/m2 CLR
05:33 -12.6 °C -14.9 °C 34462.7 hPa NW 68.6 km/h 68.6 km/h 75 % 0 mm 0.0 W/m2 CLR
05:38 -12.7 °C -15 °C 34462.7 hPa NW 50.7 km/h 50.7 km/h 75 % 0 mm 0.0 W/m2 CLR
05:43 -12.7 °C -15 °C 34462.7 hPa NW 62.6 km/h 62.6 km/h 75 % 0 mm 0.0 W/m2 CLR
05:48 -12.7 °C -15.1 °C 34462.7 hPa NW 56.6 km/h 56.6 km/h 75 % 0 mm 0.0 W/m2 CLR
05:53 -12.7 °C -15.2 °C 34462.7 hPa NW 59.5 km/h 59.5 km/h 74 % 0 mm 0.0 W/m2 CLR
05:58 -12.7 °C -15.1 °C 34476.3 hPa NW 62.6 km/h 62.6 km/h 75 % 0 mm 0.0 W/m2 CLR
06:03 -12.8 °C -15.1 °C 34462.7 hPa NW 65.5 km/h 65.5 km/h 75 % 0 mm 0.0 W/m2 CLR
06:08 -12.8 °C -15.1 °C 34476.3 hPa NW 59.5 km/h 59.5 km/h 75 % 0 mm 0.0 W/m2 CLR
06:13 -12.8 °C -15.2 °C 34476.3 hPa NW 57 km/h 57 km/h 75 % 0 mm 0.0 W/m2 CLR
06:18 -12.9 °C -15.1 °C 34476.3 hPa NW 47.6 km/h 47.6 km/h 76 % 0 mm 0.0 W/m2 CLR
06:23 -12.9 °C -15.1 °C 34476.3 hPa NW 62.6 km/h 62.6 km/h 76 % 0 mm 0.0 W/m2 CLR
06:28 -12.9 °C -14.9 °C 34486.4 hPa NW 41.7 km/h 41.7 km/h 78 % 0 mm 0.0 W/m2 CLR
06:33 -13 °C -15.1 °C 34486.4 hPa NW 68.6 km/h 68.6 km/h 78 % 0 mm 0.0 W/m2 CLR
06:38 -13.1 °C -15.1 °C 34486.4 hPa NW 50.7 km/h 50.7 km/h 79 % 0 mm 0.0 W/m2 CLR
06:43 -13.1 °C -15.1 °C 34486.4 hPa NW 53.6 km/h 53.6 km/h 79 % 0 mm 0.0 W/m2 CLR
06:48 -13.2 °C -15.1 °C 34476.3 hPa NW 50.7 km/h 50.7 km/h 79 % 0 mm 0.0 W/m2 CLR
06:53 -13.1 °C -15.1 °C 34486.4 hPa NW 50.7 km/h 50.7 km/h 78 % 0 mm 0.0 W/m2 CLR
06:58 -13.2 °C -15.1 °C 34486.4 hPa NW 50.7 km/h 50.7 km/h 79 % 0 mm 0.0 W/m2 CLR
07:03 -13.2 °C -15.1 °C 34476.3 hPa NW 50.7 km/h 50.7 km/h 79 % 0 mm 0.0 W/m2 CLR
07:08 -13.2 °C -15.1 °C 34486.4 hPa NW 65.5 km/h 65.5 km/h 79 % 0 mm 0.0 W/m2 CLR
07:13 -13.2 °C -15.2 °C 34486.4 hPa NW 47.6 km/h 47.6 km/h 78 % 0 mm 0.0 W/m2 CLR
07:18 -13.2 °C -15.2 °C 34486.4 hPa NW 62.6 km/h 62.6 km/h 78 % 0 mm 0.0 W/m2 CLR
07:23 -13.2 °C -15.4 °C 34486.4 hPa NW 65.5 km/h 65.5 km/h 76 % 0 mm 0.0 W/m2 CLR
07:28 -13.2 °C -15.4 °C 34496.6 hPa NW 65.5 km/h 65.5 km/h 75 % 0 mm 0.0 W/m2 CLR
07:33 -13.2 °C -15.6 °C 34496.6 hPa NW 74.5 km/h 74.5 km/h 74 % 0 mm 0.0 W/m2 CLR
07:38 -13.2 °C -15.6 °C 34496.6 hPa NW 59.5 km/h 59.5 km/h 74 % 0 mm 0.0 W/m2 CLR
07:43 -13.2 °C -15.7 °C 34496.6 hPa NW 74.5 km/h 74.5 km/h 73 % 0 mm 0.0 W/m2 CLR
07:48 -13.2 °C -15.9 °C 34510.1 hPa NW 80.3 km/h 80.3 km/h 72 % 0 mm 0.0 W/m2 CLR
07:53 -13.2 °C -16.1 °C 34496.6 hPa NW 74.5 km/h 74.5 km/h 70 % 0 mm 0.0 W/m2 CLR
07:58 -13.2 °C -16.1 °C 34496.6 hPa NW 75.2 km/h 75.2 km/h 70 % 0 mm 0.0 W/m2 CLR
08:03 -13.3 °C -16.2 °C 34496.6 hPa NW 77.4 km/h 77.4 km/h 69 % 0 mm 0.0 W/m2 CLR
08:08 -13.3 °C -16.4 °C 34510.1 hPa NW 77.7 km/h 77.7 km/h 68 % 0 mm 0.0 W/m2 CLR
08:13 -13.3 °C -16.3 °C 34510.1 hPa NW 74.5 km/h 74.5 km/h 69 % 0 mm 0.0 W/m2 CLR
08:18 -13.3 °C -16.4 °C 34520.3 hPa NW 89.3 km/h 89.3 km/h 68 % 0 mm 0.0 W/m2
08:23 -13.3 °C -16.4 °C 34520.3 hPa NW 89.3 km/h 89.3 km/h 68 % 0 mm 0.0 W/m2 OVC
08:28 -13.4 °C -16.2 °C 34520.3 hPa NW 74.5 km/h 74.5 km/h 70 % 0 mm 0.0 W/m2 OVC
08:33 -13.4 °C -16.2 °C 34520.3 hPa NW 68.6 km/h 68.6 km/h 71 % 0 mm 7.0 W/m2 BKN
08:38 -13.4 °C -16.2 °C 34520.3 hPa NW 74.5 km/h 74.5 km/h 71 % 0 mm 12.0 W/m2 BKN
08:43 -13.4 °C -16.2 °C 34520.3 hPa NW 86.4 km/h 86.4 km/h 71 % 0 mm 12.0 W/m2 BKN
08:48 -13.5 °C -16.4 °C 34520.3 hPa NW 89.3 km/h 89.3 km/h 69 % 0 mm 12.0 W/m2 BKN
08:53 -13.6 °C -16.3 °C 34520.3 hPa NW 80.5 km/h 80.5 km/h 71 % 0 mm 18.0 W/m2 BKN
08:59 -13.6 °C -16.3 °C 34520.3 hPa NW 59.5 km/h 59.5 km/h 71 % 0 mm 19.0 W/m2 BKN
09:04 -13.6 °C -16.3 °C 34533.8 hPa NW 77.4 km/h 77.4 km/h 71 % 0 mm 35.0 W/m2 BKN
09:09 -13.6 °C -16.3 °C 34533.8 hPa NW 65.5 km/h 65.5 km/h 71 % 0 mm 42.0 W/m2 BKN
09:14 -13.7 °C -16.4 °C 34533.8 hPa NW 71.5 km/h 71.5 km/h 71 % 0 mm 46.0 W/m2 BKN
09:19 -13.7 °C -16.6 °C 34544 hPa NW 92.4 km/h 92.4 km/h 70 % 0 mm 28.0 W/m2 BKN
09:24 -13.7 °C -16.6 °C 34544 hPa NW 89.3 km/h 89.3 km/h 70 % 0 mm 63.0 W/m2 BKN
09:29 -13.7 °C -16.7 °C 34544 hPa NW 83.4 km/h 83.4 km/h 69 % 0 mm 91.0 W/m2 BKN
09:34 -13.7 °C -16.6 °C 34544 hPa NW 65.5 km/h 65.5 km/h 69 % 0 mm 104.0 W/m2 BKN
09:39 -13.7 °C -16.7 °C 34554.1 hPa NW 95.3 km/h 95.3 km/h 68 % 0 mm 98.0 W/m2 BKN
09:44 -13.6 °C -16.7 °C 34554.1 hPa NW 74.5 km/h 74.5 km/h 68 % 0 mm 120.0 W/m2 BKN
09:49 -13.6 °C -16.7 °C 34554.1 hPa NNW 86.4 km/h 86.4 km/h 68 % 0 mm 116.0 W/m2 BKN
09:54 -13.6 °C -16.7 °C 34567.7 hPa NNW 59.5 km/h 59.5 km/h 68 % 0 mm 104.0 W/m2 BKN
09:59 -13.6 °C -16.7 °C 34567.7 hPa NW 80.3 km/h 80.3 km/h 67 % 0 mm 165.0 W/m2 BKN
10:04 -13.5 °C -16.7 °C 34567.7 hPa NW 59.5 km/h 59.5 km/h 67 % 0 mm 109.0 W/m2 BKN
10:09 -13.5 °C -16.7 °C 34567.7 hPa NW 69.8 km/h 69.8 km/h 67 % 0 mm 163.0 W/m2 BKN
10:14 -13.5 °C -16.7 °C 34567.7 hPa NNW 83.4 km/h 83.4 km/h 67 % 0 mm 214.0 W/m2 BKN
10:19 -13.4 °C -16.6 °C 34554.1 hPa NNW 71.5 km/h 71.5 km/h 67 % 0 mm 234.0 W/m2 SCT
10:24 -13.4 °C -16.6 °C 34554.1 hPa NNW 77.4 km/h 77.4 km/h 67 % 0 mm 250.0 W/m2 SCT
10:29 -13.4 °C -16.6 °C 34544 hPa NNW 93.2 km/h 93.2 km/h 67 % 0 mm 262.0 W/m2 SCT
10:34 -13.4 °C -16.6 °C 34544 hPa NW 89.3 km/h 89.3 km/h 67 % 0 mm 274.0 W/m2 SCT
10:39 -13.4 °C -16.6 °C 34554.1 hPa NW 89.3 km/h 89.3 km/h 67 % 0 mm 285.0 W/m2 SCT
10:44 -13.3 °C -16.6 °C 34554.1 hPa NW 74.5 km/h 74.5 km/h 67 % 0 mm 294.0 W/m2 SCT
10:49 -13.3 °C -16.6 °C 34554.1 hPa NNW 89.3 km/h 89.3 km/h 66 % 0 mm 304.0 W/m2 SCT
10:54 -13.2 °C -16.6 °C 34554.1 hPa NNW 80.5 km/h 80.5 km/h 66 % 0 mm 315.0 W/m2 SCT
10:59 -13.2 °C -16.5 °C 34554.1 hPa NW 88 km/h 88 km/h 66 % 0 mm 323.0 W/m2 FEW
11:04 -13.2 °C -16.7 °C 34567.7 hPa NW 86.4 km/h 86.4 km/h 64 % 0 mm 330.0 W/m2 FEW
11:09 -13.2 °C -16.6 °C 34554.1 hPa NW 95.8 km/h 95.8 km/h 65 % 0 mm 346.0 W/m2 FEW
11:14 -13.2 °C -16.6 °C 34554.1 hPa NW 85.5 km/h 85.5 km/h 65 % 0 mm 352.0 W/m2 FEW
11:19 -13.1 °C -16.6 °C 34544 hPa NW 77.4 km/h 77.4 km/h 65 % 0 mm 359.0 W/m2 FEW
11:24 -13.1 °C -16.9 °C 34554.1 hPa NNW 92.4 km/h 92.4 km/h 62 % 0 mm 369.0 W/m2 FEW
11:29 -13.2 °C -17 °C 34567.7 hPa NW 86.4 km/h 86.4 km/h 62 % 0 mm 376.0 W/m2 FEW
11:34 -13.1 °C -17.1 °C 34554.1 hPa NW 89.3 km/h 89.3 km/h 61 % 0 mm 383.0 W/m2 FEW
11:39 -13.1 °C -17 °C 34554.1 hPa NW 98.3 km/h 98.3 km/h 61 % 0 mm 392.0 W/m2 FEW
11:44 -13 °C -17.2 °C 34567.7 hPa NW 104.3 km/h 104.3 km/h 59 % 0 mm 397.0 W/m2 FEW
11:49 -12.9 °C -17.2 °C 34567.7 hPa NNW 86.4 km/h 86.4 km/h 59 % 0 mm 404.0 W/m2 FEW
11:54 -12.9 °C -17.1 °C 34554.1 hPa NNW 89.3 km/h 89.3 km/h 59 % 0 mm 408.0 W/m2 FEW
11:59 -12.9 °C -17.1 °C 34554.1 hPa NNW 92.4 km/h 92.4 km/h 59 % 0 mm 417.0 W/m2 FEW
12:04 -12.8 °C -17.2 °C 34554.1 hPa NW 101.2 km/h 101.2 km/h 58 % 0 mm 422.0 W/m2 CLR
12:09 -12.9 °C -17.3 °C 34554.1 hPa NW 89.3 km/h 89.3 km/h 58 % 0 mm 432.0 W/m2 CLR
12:14 -12.9 °C -17 °C 34554.1 hPa NW 113.1 km/h 113.1 km/h 60 % 0 mm 441.0 W/m2 CLR
12:19 -12.8 °C -16.8 °C 34544 hPa NW 68.6 km/h 68.6 km/h 61 % 0 mm 438.0 W/m2 CLR
12:24 -12.9 °C -16.8 °C 34544 hPa NW 92.4 km/h 92.4 km/h 61 % 0 mm 441.0 W/m2 CLR
12:29 -12.9 °C -16.9 °C 34533.8 hPa NW 89.3 km/h 89.3 km/h 60 % 0 mm 446.0 W/m2 CLR
12:34 -12.9 °C -17.1 °C 34544 hPa NW 89.3 km/h 89.3 km/h 59 % 0 mm 452.0 W/m2 CLR
12:39 -12.8 °C -16.9 °C 34544 hPa NW 93.2 km/h 93.2 km/h 60 % 0 mm 450.0 W/m2 CLR
12:44 -12.9 °C -16.8 °C 34544 hPa NW 89.3 km/h 89.3 km/h 61 % 0 mm 452.0 W/m2 CLR
12:49 -12.9 °C -16.9 °C 34544 hPa NW 89.3 km/h 89.3 km/h 60 % 0 mm 464.0 W/m2 CLR
12:54 -12.8 °C -16.8 °C 34544 hPa NW 80.5 km/h 80.5 km/h 60 % 0 mm 462.0 W/m2 CLR
12:59 -12.7 °C -17.1 °C 34544 hPa NW 80.5 km/h 80.5 km/h 58 % 0 mm 466.0 W/m2 CLR
13:04 -12.6 °C -17 °C 34544 hPa NW 89.3 km/h 89.3 km/h 58 % 0 mm 496.0 W/m2 CLR
13:09 -12.6 °C -17.1 °C 34544 hPa NW 98.3 km/h 98.3 km/h 57 % 0 mm 462.0 W/m2 CLR
13:15 -12.7 °C -17.2 °C 34533.8 hPa NW 77.4 km/h 77.4 km/h 57 % 0 mm 468.0 W/m2 CLR
13:20 -12.7 °C -17.2 °C 34544 hPa NNW 93.2 km/h 93.2 km/h 57 % 0 mm 476.0 W/m2 CLR
13:25 -12.7 °C -17.3 °C 34533.8 hPa NNW 77.7 km/h 77.7 km/h 56 % 0 mm 473.0 W/m2 CLR
13:30 -12.7 °C -17.2 °C 34533.8 hPa NNW 83.4 km/h 83.4 km/h 57 % 0 mm 476.0 W/m2 CLR
13:35 -12.8 °C -17.4 °C 34544 hPa NW 98.3 km/h 98.3 km/h 56 % 0 mm 455.0 W/m2 CLR
13:40 -12.7 °C -17.2 °C 34544 hPa NW 80.5 km/h 80.5 km/h 57 % 0 mm 461.0 W/m2 CLR
13:45 -12.7 °C -17.2 °C 34544 hPa NW 68.6 km/h 68.6 km/h 57 % 0 mm 478.0 W/m2 CLR
13:50 -12.8 °C -17.3 °C 34533.8 hPa NW 101.2 km/h 101.2 km/h 57 % 0 mm 448.0 W/m2 CLR
13:55 -12.7 °C -17.1 °C 34533.8 hPa NW 74.5 km/h 74.5 km/h 58 % 0 mm 462.0 W/m2 CLR
14:00 -12.7 °C -17.3 °C 34533.8 hPa NW 110.2 km/h 110.2 km/h 56 % 0 mm 438.0 W/m2 CLR
14:05 -12.7 °C -17.3 °C 34533.8 hPa NW 92.4 km/h 92.4 km/h 56 % 0 mm 438.0 W/m2 CLR
14:10 -12.6 °C -17.1 °C 34533.8 hPa NW 68.6 km/h 68.6 km/h 57 % 0 mm 452.0 W/m2 CLR
14:15 -12.5 °C -17.3 °C 34533.8 hPa NNW 101.1 km/h 101.1 km/h 55 % 0 mm 503.0 W/m2 CLR
14:20 -12.5 °C -17.1 °C 34533.8 hPa NNW 59.5 km/h 59.5 km/h 56 % 0 mm 425.0 W/m2 CLR
14:25 -12.6 °C -17.4 °C 34533.8 hPa NW 71.5 km/h 71.5 km/h 54 % 0 mm 415.0 W/m2 CLR
14:30 -12.6 °C -17.5 °C 34533.8 hPa NW 89.3 km/h 89.3 km/h 54 % 0 mm 411.0 W/m2 CLR
14:35 -12.6 °C -17.8 °C 34533.8 hPa NW 101.2 km/h 101.2 km/h 52 % 0 mm 399.0 W/m2 CLR
14:40 -12.7 °C -17.8 °C 34544 hPa NNW 95.8 km/h 95.8 km/h 52 % 0 mm 367.0 W/m2 CLR
14:45 -12.7 °C -17.6 °C 34544 hPa NNW 83.4 km/h 83.4 km/h 54 % 0 mm 387.0 W/m2 CLR
14:50 -12.7 °C -17.6 °C 34533.8 hPa NW 89.3 km/h 89.3 km/h 54 % 0 mm 381.0 W/m2 CLR
14:55 -12.7 °C -17.6 °C 34533.8 hPa NW 74.5 km/h 74.5 km/h 54 % 0 mm 369.0 W/m2 CLR
15:00 -12.6 °C -17.5 °C 34533.8 hPa NNW 65.5 km/h 65.5 km/h 54 % 0 mm 367.0 W/m2 CLR
15:05 -12.6 °C -17.4 °C 34533.8 hPa NNW 80.5 km/h 80.5 km/h 54 % 0 mm 360.0 W/m2 CLR
15:10 -12.5 °C -17.4 °C 34533.8 hPa NW 72.6 km/h 72.6 km/h 54 % 0 mm 348.0 W/m2 CLR
15:15 -12.6 °C -17.5 °C 34533.8 hPa NW 69.8 km/h 69.8 km/h 54 % 0 mm 346.0 W/m2 CLR
15:20 -12.7 °C -17.7 °C 34544 hPa NW 86.4 km/h 86.4 km/h 53 % 0 mm 334.0 W/m2 CLR
15:25 -12.7 °C -17.6 °C 34544 hPa NW 68.6 km/h 68.6 km/h 54 % 0 mm 322.0 W/m2 CLR
15:30 -12.6 °C -17.5 °C 34533.8 hPa NW 50.7 km/h 50.7 km/h 54 % 0 mm 311.0 W/m2 CLR
15:35 -12.6 °C -17.3 °C 34533.8 hPa NNW 59.5 km/h 59.5 km/h 55 % 0 mm 306.0 W/m2 CLR
15:40 -12.6 °C -17.3 °C 34533.8 hPa NW 65.5 km/h 65.5 km/h 55 % 0 mm 295.0 W/m2 CLR
15:45 -12.6 °C -17.2 °C 34533.8 hPa NW 44.7 km/h 44.7 km/h 56 % 0 mm 279.0 W/m2 CLR
15:50 -12.6 °C -17.4 °C 34533.8 hPa NW 77.4 km/h 77.4 km/h 55 % 0 mm 271.0 W/m2 CLR
15:55 -12.7 °C -17.3 °C 34533.8 hPa NW 65.5 km/h 65.5 km/h 56 % 0 mm 258.0 W/m2 CLR
16:00 -12.7 °C -17.3 °C 34533.8 hPa NNW 77.4 km/h 77.4 km/h 56 % 0 mm 246.0 W/m2 CLR
16:05 -12.7 °C -17.4 °C 34544 hPa NW 74.5 km/h 74.5 km/h 56 % 0 mm 232.0 W/m2 CLR
16:10 -12.8 °C -17.3 °C 34544 hPa NW 65.5 km/h 65.5 km/h 57 % 0 mm 218.0 W/m2 CLR
16:15 -12.8 °C -17.4 °C 34544 hPa NW 77.4 km/h 77.4 km/h 56 % 0 mm 190.0 W/m2 CLR
16:20 -12.8 °C -17.3 °C 34544 hPa NW 68.6 km/h 68.6 km/h 57 % 0 mm 186.0 W/m2 CLR
16:25 -12.9 °C -17.3 °C 34544 hPa NW 71.5 km/h 71.5 km/h 57 % 0 mm 174.0 W/m2 CLR
16:30 -12.9 °C -17.4 °C 34544 hPa NW 90.6 km/h 90.6 km/h 57 % 0 mm 158.0 W/m2 CLR
16:35 -12.9 °C -17.3 °C 34533.8 hPa NW 89.3 km/h 89.3 km/h 58 % 0 mm 142.0 W/m2 CLR
16:40 -13 °C -17.4 °C 34544 hPa NW 92.4 km/h 92.4 km/h 57 % 0 mm 125.0 W/m2 CLR
16:45 -13 °C -17.5 °C 34544 hPa NW 86.4 km/h 86.4 km/h 57 % 0 mm 113.0 W/m2 CLR
16:50 -13.1 °C -17.7 °C 34544 hPa NW 53.6 km/h 53.6 km/h 56 % 0 mm 100.0 W/m2 CLR
16:56 -13.1 °C -17.6 °C 34554.1 hPa NW 89.3 km/h 89.3 km/h 57 % 0 mm 86.0 W/m2 CLR
17:01 -13.2 °C -17.6 °C 34554.1 hPa NW 80.5 km/h 80.5 km/h 57 % 0 mm 72.0 W/m2 CLR
17:06 -13.2 °C -17.6 °C 34554.1 hPa NW 83.4 km/h 83.4 km/h 57 % 0 mm 62.0 W/m2 CLR
17:11 -13.2 °C -17.8 °C 34554.1 hPa NW 89.3 km/h 89.3 km/h 56 % 0 mm 49.0 W/m2 OVC
17:16 -13.2 °C -17.8 °C 34554.1 hPa NW 62.6 km/h 62.6 km/h 56 % 0 mm 39.0 W/m2 OVC
17:21 -13.3 °C -17.9 °C 34554.1 hPa NW 80.5 km/h 80.5 km/h 56 % 0 mm 26.0 W/m2 OVC
17:26 -13.4 °C -17.8 °C 34554.1 hPa NW 92.4 km/h 92.4 km/h 57 % 0 mm 19.0 W/m2
17:31 -13.4 °C -17.7 °C 34567.7 hPa NW 95.3 km/h 95.3 km/h 58 % 0 mm 14.0 W/m2
17:36 -13.5 °C -17.7 °C 34567.7 hPa NW 71.5 km/h 71.5 km/h 59 % 0 mm 12.0 W/m2 OVC
17:41 -13.6 °C -17.6 °C 34567.7 hPa NW 74.5 km/h 74.5 km/h 60 % 0 mm 9.0 W/m2 OVC
17:46 -13.7 °C -17.6 °C 34567.7 hPa NW 57 km/h 57 km/h 61 % 0 mm 7.0 W/m2 OVC
17:51 -13.7 °C -17.6 °C 34567.7 hPa NNW 53.6 km/h 53.6 km/h 61 % 0 mm 5.0 W/m2 OVC
17:56 -13.8 °C -17.6 °C 34577.8 hPa NW 65.5 km/h 65.5 km/h 62 % 0 mm 0.0 W/m2 CLR
18:01 -13.8 °C -17.4 °C 34577.8 hPa NW 68.6 km/h 68.6 km/h 63 % 0 mm 0.0 W/m2 CLR
18:06 -13.8 °C -17.4 °C 34577.8 hPa NW 62.6 km/h 62.6 km/h 63 % 0 mm 0.0 W/m2 CLR
18:11 -13.8 °C -17.3 °C 34577.8 hPa NNW 62.6 km/h 62.6 km/h 64 % 0 mm 0.0 W/m2 CLR
18:16 -13.8 °C -17.4 °C 34577.8 hPa NW 71.5 km/h 71.5 km/h 63 % 0 mm 0.0 W/m2 CLR
18:21 -13.8 °C -17.5 °C 34577.8 hPa NW 68.6 km/h 68.6 km/h 63 % 0 mm 0.0 W/m2 CLR
18:26 -13.9 °C -17.6 °C 34577.8 hPa NW 62.6 km/h 62.6 km/h 63 % 0 mm 0.0 W/m2 CLR
18:31 -13.9 °C -17.6 °C 34591.4 hPa NW 77.7 km/h 77.7 km/h 63 % 0 mm 0.0 W/m2 CLR
18:36 -14 °C -17.5 °C 34591.4 hPa NW 77.4 km/h 77.4 km/h 64 % 0 mm 0.0 W/m2 CLR
18:41 -14 °C -17.4 °C 34591.4 hPa NW 83.4 km/h 83.4 km/h 65 % 0 mm 0.0 W/m2 CLR
18:46 -14.1 °C -17.4 °C 34591.4 hPa NNW 71.5 km/h 71.5 km/h 65 % 0 mm 0.0 W/m2 CLR
18:51 -14.1 °C -17.4 °C 34591.4 hPa NW 82.9 km/h 82.9 km/h 65 % 0 mm 0.0 W/m2 CLR
18:56 -14.1 °C -17.4 °C 34591.4 hPa NW 80.5 km/h 80.5 km/h 65 % 0 mm 0.0 W/m2 CLR
19:01 -14.1 °C -17.3 °C 34591.4 hPa NW 74.5 km/h 74.5 km/h 66 % 0 mm 0.0 W/m2 CLR
19:06 -14.1 °C -17.4 °C 34591.4 hPa NW 83.4 km/h 83.4 km/h 65 % 0 mm 0.0 W/m2 CLR
19:11 -14.1 °C -17.4 °C 34601.5 hPa NW 86.4 km/h 86.4 km/h 66 % 0 mm 0.0 W/m2 CLR
19:16 -14.1 °C -17.3 °C 34601.5 hPa NW 68.6 km/h 68.6 km/h 67 % 0 mm 0.0 W/m2 CLR
19:21 -14.2 °C -17.2 °C 34611.7 hPa NW 51.8 km/h 51.8 km/h 69 % 0 mm 0.0 W/m2 CLR
19:26 -14.3 °C -17.1 °C 34611.7 hPa NW 68.6 km/h 68.6 km/h 70 % 0 mm 0.0 W/m2 CLR
19:31 -14.4 °C -17.1 °C 34611.7 hPa NW 59.5 km/h 59.5 km/h 71 % 0 mm 0.0 W/m2 CLR
19:36 -14.4 °C -17.1 °C 34611.7 hPa NW 62.6 km/h 62.6 km/h 71 % 0 mm 0.0 W/m2 CLR
19:41 -14.5 °C -17.2 °C 34611.7 hPa NW 62.6 km/h 62.6 km/h 71 % 0 mm 0.0 W/m2 CLR
19:46 -14.5 °C -17.1 °C 34611.7 hPa NW 77.4 km/h 77.4 km/h 72 % 0 mm 0.0 W/m2 CLR
19:51 -14.6 °C -17.1 °C 34611.7 hPa WNW 59.5 km/h 59.5 km/h 72 % 0 mm 0.0 W/m2 CLR
19:56 -14.6 °C -17.1 °C 34611.7 hPa NW 68.6 km/h 68.6 km/h 72 % 0 mm 0.0 W/m2 CLR
20:01 -14.5 °C -17.1 °C 34625.2 hPa NW 80.5 km/h 80.5 km/h 72 % 0 mm 0.0 W/m2 CLR
20:06 -14.6 °C -17.1 °C 34625.2 hPa NW 50.7 km/h 50.7 km/h 72 % 0 mm 0.0 W/m2 CLR
20:11 -14.6 °C -17.2 °C 34625.2 hPa NW 56.6 km/h 56.6 km/h 72 % 0 mm 0.0 W/m2 CLR
20:16 -14.6 °C -17.2 °C 34611.7 hPa NW 41.7 km/h 41.7 km/h 72 % 0 mm 0.0 W/m2 CLR
20:21 -14.7 °C -17.1 °C 34611.7 hPa NW 59.5 km/h 59.5 km/h 73 % 0 mm 0.0 W/m2 CLR
20:26 -14.7 °C -17.2 °C 34611.7 hPa NW 50.7 km/h 50.7 km/h 73 % 0 mm 0.0 W/m2 CLR
20:31 -14.7 °C -17.2 °C 34611.7 hPa WNW 68.6 km/h 68.6 km/h 73 % 0 mm 0.0 W/m2 CLR
20:36 -14.7 °C -17.2 °C 34625.2 hPa NW 50.7 km/h 50.7 km/h 73 % 0 mm 0.0 W/m2 CLR
20:41 -14.8 °C -17.2 °C 34625.2 hPa NW 57 km/h 57 km/h 73 % 0 mm 0.0 W/m2 CLR
20:46 -14.8 °C -17.2 °C 34635.4 hPa NW 77.4 km/h 77.4 km/h 73 % 0 mm 0.0 W/m2 CLR
20:51 -14.8 °C -17.2 °C 34635.4 hPa NW 50.7 km/h 50.7 km/h 73 % 0 mm 0.0 W/m2 CLR
20:56 -14.8 °C -17.3 °C 34645.6 hPa NW 47.6 km/h 47.6 km/h 73 % 0 mm 0.0 W/m2 CLR
21:01 -14.8 °C -17.3 °C 34635.4 hPa NW 46.7 km/h 46.7 km/h 73 % 0 mm 0.0 W/m2 CLR
21:06 -14.8 °C -17.3 °C 34635.4 hPa NW 68.6 km/h 68.6 km/h 73 % 0 mm 0.0 W/m2 CLR
21:11 -14.9 °C -17.3 °C 34635.4 hPa NW 59.5 km/h 59.5 km/h 74 % 0 mm 0.0 W/m2 CLR
21:16 -14.9 °C -17.3 °C 34645.6 hPa NW 56.6 km/h 56.6 km/h 74 % 0 mm 0.0 W/m2 CLR
21:21 -14.9 °C -17.3 °C 34635.4 hPa NW 38.8 km/h 38.8 km/h 74 % 0 mm 0.0 W/m2 CLR
21:26 -14.9 °C -17.3 °C 34635.4 hPa NW 44.7 km/h 44.7 km/h 74 % 0 mm 0.0 W/m2 CLR
21:31 -14.9 °C -17.3 °C 34635.4 hPa WNW 44.7 km/h 44.7 km/h 74 % 0 mm 0.0 W/m2 CLR
21:36 -15.1 °C -17.4 °C 34645.6 hPa WNW 50.7 km/h 50.7 km/h 74 % 0 mm 0.0 W/m2 CLR
21:41 -15 °C -17.4 °C 34645.6 hPa WNW 50.7 km/h 50.7 km/h 74 % 0 mm 0.0 W/m2 CLR
21:46 -15.1 °C -17.3 °C 34645.6 hPa NW 56.6 km/h 56.6 km/h 75 % 0 mm 0.0 W/m2 CLR
21:51 -15.1 °C -17.3 °C 34645.6 hPa NW 41.7 km/h 41.7 km/h 75 % 0 mm 0.0 W/m2 CLR
21:56 -15.1 °C -17.3 °C 34645.6 hPa NW 53.6 km/h 53.6 km/h 76 % 0 mm 0.0 W/m2 CLR
22:01 -15.1 °C -17.3 °C 34645.6 hPa NW 44.7 km/h 44.7 km/h 76 % 0 mm 0.0 W/m2 CLR
22:06 -15.1 °C -17.3 °C 34645.6 hPa NW 50.7 km/h 50.7 km/h 76 % 0 mm 0.0 W/m2 CLR
22:11 -15.1 °C -17.3 °C 34645.6 hPa NW 47.6 km/h 47.6 km/h 76 % 0 mm 0.0 W/m2 CLR
22:16 -15.1 °C -17.3 °C 34659.1 hPa NW 33.6 km/h 33.6 km/h 76 % 0 mm 0.0 W/m2 CLR
22:21 -15.1 °C -17.2 °C 34659.1 hPa NW 38.8 km/h 38.8 km/h 76 % 0 mm 0.0 W/m2 CLR
22:26 -15.1 °C -17.1 °C 34659.1 hPa NW 47.6 km/h 47.6 km/h 77 % 0 mm 0.0 W/m2 CLR
22:31 -15.1 °C -17.2 °C 34659.1 hPa NW 50.7 km/h 50.7 km/h 77 % 0 mm 0.0 W/m2 CLR
22:36 -15.1 °C -17.2 °C 34659.1 hPa NW 46.7 km/h 46.7 km/h 77 % 0 mm 0.0 W/m2 CLR
22:41 -15.2 °C -17.2 °C 34659.1 hPa NW 50.7 km/h 50.7 km/h 78 % 0 mm 0.0 W/m2 CLR
22:47 -15.3 °C -17.2 °C 34659.1 hPa NW 35.7 km/h 35.7 km/h 78 % 0 mm 0.0 W/m2 CLR
22:52 -15.3 °C -17.2 °C 34659.1 hPa WNW 29.8 km/h 33.5 km/h 79 % 0 mm 0.0 W/m2 CLR
22:57 -15.4 °C -17.2 °C 34659.1 hPa WNW 38.8 km/h 38.8 km/h 79 % 0 mm 0.0 W/m2 CLR
23:02 -15.4 °C -17.2 °C 34659.1 hPa NW 41.7 km/h 41.7 km/h 79 % 0 mm 0.0 W/m2 CLR
23:07 -15.4 °C -17.3 °C 34659.1 hPa NW 41.7 km/h 41.7 km/h 79 % 0 mm 0.0 W/m2 CLR
23:12 -15.4 °C -17.3 °C 34659.1 hPa WNW 33.6 km/h 33.6 km/h 79 % 0 mm 0.0 W/m2 CLR
23:17 -15.5 °C -17.3 °C 34659.1 hPa WNW 67.3 km/h 67.3 km/h 80 % 0 mm 0.0 W/m2 CLR
23:22 -15.4 °C -17.2 °C 34659.1 hPa NW 50.7 km/h 50.7 km/h 80 % 0 mm 0.0 W/m2 CLR
23:27 -15.5 °C -17.3 °C 34669.3 hPa WNW 47.6 km/h 47.6 km/h 80 % 0 mm 0.0 W/m2 CLR
23:32 -15.4 °C -17.2 °C 34669.3 hPa WNW 53.6 km/h 53.6 km/h 80 % 0 mm 0.0 W/m2 CLR
23:37 -15.5 °C -17.3 °C 34669.3 hPa NW 53.6 km/h 53.6 km/h 80 % 0 mm 0.0 W/m2 CLR
23:42 -15.4 °C -17.2 °C 34669.3 hPa NW 47.6 km/h 47.6 km/h 80 % 0 mm 0.0 W/m2 CLR
23:47 -15.5 °C -17.3 °C 34682.8 hPa NW 41.7 km/h 41.7 km/h 80 % 0 mm 0.0 W/m2 CLR
23:52 -15.5 °C -17.3 °C 34682.8 hPa NW 32.8 km/h 32.8 km/h 80 % 0 mm 0.0 W/m2 CLR
23:57 -15.5 °C -17.3 °C 34682.8 hPa NW 44.7 km/h 44.7 km/h 80 % 0 mm 0.0 W/m2 CLR
Lo Temps de Massalio
Compliments of Weather Underground - 1.25 mb